Time;durP1;ratioP1;P1;durP2;ratioP2;P2;SDS_P1;SDS_P2;PMS_P1;PMS_P2;Temp;Humidity;BMP_temperature;BMP_pressure;BME280_temperature;BME280_humidity;BME280_pressure;Samples;Min_cycle;Max_cycle;Signal;HPM_P1;HPM_P2
2023/10/07 00:00:28;;;;;;;19.13;4.10;;;15.40;99.90;;;;;;5099785;27;20062;-62
2023/10/07 00:02:59;;;;;;;12.35;3.63;;;15.40;99.90;;;;;;5106523;27;20075;-62
2023/10/07 00:05:40;;;;;;;15.88;3.88;;;15.40;99.90;;;;;;5101784;27;20490;-62
2023/10/07 00:08:08;;;;;;;15.13;3.97;;;15.50;99.90;;;;;;5085893;27;20465;-62
2023/10/07 00:10:37;;;;;;;17.00;4.30;;;15.50;99.90;;;;;;5103430;27;20043;-62
2023/10/07 00:13:08;;;;;;;14.85;4.05;;;15.50;99.90;;;;;;5088337;27;20051;-62
2023/10/07 00:15:38;;;;;;;16.05;4.15;;;15.50;99.90;;;;;;5110932;27;20055;-62
2023/10/07 00:18:23;;;;;;;19.95;4.45;;;15.50;99.90;;;;;;5089020;27;20390;-62
2023/10/07 00:20:55;;;;;;;14.93;4.13;;;15.60;99.90;;;;;;5082992;27;20057;-62
2023/10/07 00:23:23;;;;;;;17.88;3.80;;;15.60;99.90;;;;;;5102859;27;20508;-62
2023/10/07 00:25:50;;;;;;;14.52;4.25;;;15.60;99.90;;;;;;5101448;27;20051;-63
2023/10/07 00:28:32;;;;;;;12.52;3.88;;;15.60;99.90;;;;;;5099735;27;20043;-63
2023/10/07 00:31:02;;;;;;;15.27;3.60;;;15.60;99.90;;;;;;5128008;27;20561;-62
2023/10/07 00:33:30;;;;;;;15.85;4.28;;;15.70;99.90;;;;;;5104614;27;20051;-62
2023/10/07 00:36:02;;;;;;;13.82;4.10;;;15.70;99.90;;;;;;5122589;27;20147;-62
2023/10/07 00:38:37;;;;;;;14.35;3.30;;;15.70;99.90;;;;;;5095498;27;20134;-62
2023/10/07 00:41:03;;;;;;;19.73;4.30;;;15.70;99.90;;;;;;5112895;27;20138;-62
2023/10/07 00:43:33;;;;;;;14.13;4.38;;;15.80;99.90;;;;;;5130179;27;20042;-62
2023/10/07 00:46:20;;;;;;;14.98;4.20;;;15.80;99.90;;;;;;5114436;27;20050;-62
2023/10/07 00:48:56;;;;;;;18.98;4.57;;;15.80;99.90;;;;;;5131904;27;20046;-62
2023/10/07 00:51:46;;;;;;;16.55;3.90;;;15.90;99.90;;;;;;5113961;27;20043;-62
2023/10/07 00:54:30;;;;;;;12.93;3.88;;;15.90;99.90;;;;;;5111788;27;20047;-62
2023/10/07 00:57:11;;;;;;;17.00;3.65;;;15.90;99.90;;;;;;5114379;27;20039;-62
2023/10/07 00:59:49;;;;;;;17.27;4.15;;;15.90;99.90;;;;;;5131428;27;20852;-63
2023/10/07 01:02:18;;;;;;;18.45;4.28;;;16.00;99.90;;;;;;5113970;27;20445;-62
2023/10/07 01:04:45;;;;;;;18.33;4.25;;;16.00;99.90;;;;;;5130100;27;20058;-61
2023/10/07 01:07:18;;;;;;;13.63;4.05;;;16.00;99.90;;;;;;5113582;27;20035;-63
2023/10/07 01:10:05;;;;;;;14.93;4.80;;;15.90;99.90;;;;;;5112945;27;20080;-62
2023/10/07 01:12:36;;;;;;;14.55;4.10;;;16.00;99.90;;;;;;5091494;27;20040;-62
2023/10/07 01:15:40;;;;;;;13.53;3.70;;;15.90;99.90;;;;;;5117364;27;20116;-62
2023/10/07 01:18:05;;;;;;;19.13;4.82;;;16.00;99.90;;;;;;5103768;27;20428;-62
2023/10/07 01:23:32;;;;;;;15.20;4.38;;;16.00;99.90;;;;;;5054892;28;20487;-62
2023/10/07 01:25:59;;;;;;;12.88;4.03;;;16.00;99.90;;;;;;5066200;28;20048;-62
2023/10/07 01:28:26;;;;;;;15.68;4.30;;;16.00;99.90;;;;;;5043477;28;20057;-62
2023/10/07 01:31:07;;;;;;;18.05;4.68;;;16.00;99.90;;;;;;5057602;28;20484;-62
2023/10/07 01:33:40;;;;;;;14.35;3.70;;;16.00;99.90;;;;;;5055331;28;20745;-62
2023/10/07 01:38:33;;;;;;;11.35;3.80;;;16.10;99.90;;;;;;5037877;28;20402;-62
2023/10/07 01:41:06;;;;;;;17.20;4.50;;;16.00;99.90;;;;;;5042185;28;20056;-62
2023/10/07 01:43:39;;;;;;;19.90;4.75;;;16.10;99.90;;;;;;5024094;28;20108;-62
2023/10/07 01:46:10;;;;;;;14.13;4.10;;;16.10;99.90;;;;;;5039605;28;20040;-63
2023/10/07 01:48:37;;;;;;;15.95;4.68;;;16.10;99.90;;;;;;5066911;28;20192;-62
2023/10/07 01:51:05;;;;;;;13.82;4.20;;;16.10;99.90;;;;;;5077697;28;20052;-62
2023/10/07 01:53:34;;;;;;;13.35;3.72;;;16.10;99.90;;;;;;5062597;28;20047;-63
2023/10/07 01:56:04;;;;;;;12.80;4.65;;;16.10;99.90;;;;;;5068200;28;20521;-62
2023/10/07 01:58:30;;;;;;;14.45;4.07;;;16.20;99.90;;;;;;5048538;28;20076;-62
2023/10/07 02:00:59;;;;;;;13.57;4.07;;;16.20;99.90;;;;;;5086471;27;20054;-63
2023/10/07 02:03:25;;;;;;;14.43;4.57;;;16.20;99.90;;;;;;5117562;27;20108;-62
2023/10/07 02:05:51;;;;;;;13.50;3.92;;;16.20;99.90;;;;;;5097903;27;20038;-62
2023/10/07 02:08:22;;;;;;;16.17;4.10;;;16.30;99.90;;;;;;5098943;28;20039;-62
2023/10/07 02:10:49;;;;;;;14.13;4.95;;;16.30;99.90;;;;;;5098079;27;20058;-62
2023/10/07 02:13:19;;;;;;;12.35;3.70;;;16.30;99.90;;;;;;5102204;27;20116;-62
2023/10/07 02:15:52;;;;;;;13.52;4.05;;;16.30;99.90;;;;;;5113409;27;20051;-62
2023/10/07 02:18:18;;;;;;;11.20;4.10;;;16.30;99.90;;;;;;5111519;28;20389;-62
2023/10/07 02:20:49;;;;;;;15.85;4.00;;;16.30;99.90;;;;;;5109597;28;20126;-62
2023/10/07 02:23:34;;;;;;;15.43;4.95;;;16.30;99.90;;;;;;5113078;28;20066;-62
2023/10/07 02:26:00;;;;;;;12.63;4.30;;;16.40;99.90;;;;;;5111496;28;20031;-62
2023/10/07 02:28:29;;;;;;;16.08;4.18;;;16.40;99.90;;;;;;5112966;28;20035;-62
2023/10/07 02:31:01;;;;;;;13.95;3.67;;;16.40;99.90;;;;;;5082536;28;20055;-62
2023/10/07 02:33:28;;;;;;;14.40;4.68;;;16.40;99.90;;;;;;5094519;28;20050;-62
2023/10/07 02:35:56;;;;;;;15.32;3.95;;;16.40;99.90;;;;;;5093198;28;20043;-61
2023/10/07 02:38:35;;;;;;;19.60;5.28;;;16.40;99.90;;;;;;5091440;28;20133;-63
2023/10/07 02:41:07;;;;;;;15.48;4.25;;;16.50;99.90;;;;;;5096956;28;20110;-62
2023/10/07 02:43:42;;;;;;;11.70;4.28;;;16.50;99.90;;;;;;5095159;28;20042;-62
2023/10/07 02:46:08;;;;;;;14.45;3.53;;;16.50;99.90;;;;;;5094230;28;20050;-63
2023/10/07 02:48:38;;;;;;;19.35;4.38;;;16.50;99.90;;;;;;5092300;28;20039;-62
2023/10/07 02:51:07;;;;;;;14.13;3.92;;;16.50;99.90;;;;;;5111942;28;20471;-62
2023/10/07 02:53:35;;;;;;;15.48;4.10;;;16.50;99.90;;;;;;5087878;27;20042;-62
2023/10/07 02:56:16;;;;;;;14.90;3.72;;;16.50;99.90;;;;;;5086972;28;20482;-62
2023/10/07 02:58:51;;;;;;;11.38;3.85;;;16.50;99.90;;;;;;5090886;28;20051;-62
2023/10/07 03:01:26;;;;;;;14.95;4.00;;;16.50;99.90;;;;;;5083348;28;20054;-62
2023/10/07 03:03:52;;;;;;;13.93;4.88;;;16.50;99.90;;;;;;5111293;28;20123;-62
2023/10/07 03:06:18;;;;;;;12.68;4.18;;;16.50;99.90;;;;;;5109164;28;20079;-62
2023/10/07 03:08:57;;;;;;;10.80;3.60;;;16.50;99.90;;;;;;5109389;28;20043;-62
2023/10/07 03:11:24;;;;;;;14.35;4.55;;;16.50;99.90;;;;;;5108974;28;20436;-62
2023/10/07 03:13:56;;;;;;;15.90;4.03;;;16.50;99.90;;;;;;5109202;28;20039;-62
2023/10/07 03:21:55;;;;;;;17.77;3.97;;;16.50;99.90;;;;;;5122669;28;20494;-62
2023/10/07 03:24:41;;;;;;;12.57;4.00;;;16.50;99.90;;;;;;5128559;28;20123;-62
2023/10/07 03:27:11;;;;;;;13.73;4.85;;;16.60;99.90;;;;;;5110512;28;20387;-62
2023/10/07 03:29:39;;;;;;;12.93;4.18;;;16.50;99.90;;;;;;5132493;27;20069;-62
2023/10/07 03:32:12;;;;;;;15.02;4.50;;;16.60;99.90;;;;;;5112232;27;20039;-62
2023/10/07 03:34:45;;;;;;;12.65;4.15;;;16.60;99.90;;;;;;5114910;27;20062;-62
2023/10/07 03:42:22;;;;;;;12.00;3.60;;;16.60;99.90;;;;;;5114873;27;20050;-62
2023/10/07 03:44:49;;;;;;;10.60;3.47;;;16.70;99.90;;;;;;5132245;27;20121;-62
2023/10/07 03:47:15;;;;;;;15.70;3.70;;;16.70;99.90;;;;;;5114735;27;20047;-62
2023/10/07 03:49:47;;;;;;;14.63;3.70;;;16.70;99.90;;;;;;5132205;27;20371;-61
2023/10/07 03:52:13;;;;;;;12.82;3.92;;;16.70;99.90;;;;;;5095883;27;20049;-62
2023/10/07 03:54:42;;;;;;;15.00;3.70;;;16.70;99.90;;;;;;5113418;27;20051;-62
2023/10/07 03:57:10;;;;;;;13.93;4.20;;;16.70;99.90;;;;;;5132933;27;20516;-63
2023/10/07 03:59:37;;;;;;;12.77;4.00;;;16.70;99.90;;;;;;5113993;27;20100;-62
2023/10/07 04:05:00;;;;;;;13.32;4.00;;;16.70;99.90;;;;;;5133163;27;20066;-62
2023/10/07 04:07:27;;;;;;;12.07;3.78;;;16.80;99.90;;;;;;5132050;27;20047;-62
2023/10/07 04:09:54;;;;;;;12.27;3.70;;;16.80;99.90;;;;;;5110623;27;20084;-62
2023/10/07 04:12:22;;;;;;;13.13;4.05;;;16.80;99.90;;;;;;5126062;27;20050;-61
2023/10/07 04:14:52;;;;;;;15.32;4.07;;;16.80;99.90;;;;;;5113982;27;20111;-62
2023/10/07 04:17:17;;;;;;;14.40;3.60;;;16.80;99.90;;;;;;5131511;27;20042;-62
2023/10/07 04:19:52;;;;;;;11.13;3.80;;;16.80;99.90;;;;;;5114631;27;20035;-62
2023/10/07 04:22:17;;;;;;;16.75;3.80;;;16.80;99.90;;;;;;5113909;27;20070;-62
2023/10/07 04:24:44;;;;;;;13.27;3.60;;;16.80;99.90;;;;;;5114537;27;20082;-62
2023/10/07 04:27:18;;;;;;;12.20;3.90;;;16.80;99.90;;;;;;5114156;27;20035;-63
2023/10/07 04:29:45;;;;;;;15.27;3.92;;;16.80;99.90;;;;;;5112114;27;20066;-62
2023/10/07 04:32:13;;;;;;;19.05;5.50;;;16.80;99.90;;;;;;5113691;27;20155;-63
2023/10/07 04:35:00;;;;;;;15.25;3.80;;;16.80;99.90;;;;;;5108221;27;20050;-62
2023/10/07 04:37:43;;;;;;;11.35;3.30;;;16.80;99.90;;;;;;5114345;27;20073;-63
2023/10/07 04:42:39;;;;;;;13.32;3.72;;;16.80;99.90;;;;;;5111687;27;20130;-63
2023/10/07 04:45:35;;;;;;;11.35;3.88;;;16.80;99.90;;;;;;5110317;27;20097;-62
2023/10/07 04:48:23;;;;;;;9.85;3.60;;;16.80;99.90;;;;;;5110458;27;20047;-63
2023/10/07 04:51:02;;;;;;;8.85;3.85;;;16.80;99.90;;;;;;5114551;27;20442;-63
2023/10/07 04:53:37;;;;;;;13.88;4.10;;;16.80;99.90;;;;;;5111396;27;20082;-64
2023/10/07 04:56:07;;;;;;;16.02;4.10;;;16.80;99.90;;;;;;5130610;27;20046;-63
2023/10/07 04:58:33;;;;;;;13.00;3.63;;;16.80;99.90;;;;;;5111706;27;20039;-63
2023/10/07 05:01:06;;;;;;;12.00;3.95;;;16.80;99.90;;;;;;5114274;27;20087;-63
2023/10/07 05:03:33;;;;;;;14.55;4.28;;;16.80;99.90;;;;;;5110878;27;20043;-64
2023/10/07 05:05:59;;;;;;;15.52;4.00;;;16.80;99.90;;;;;;5131854;27;20156;-63
2023/10/07 05:08:27;;;;;;;9.60;3.50;;;16.80;99.90;;;;;;5109574;27;20055;-64
2023/10/07 05:10:55;;;;;;;12.23;3.30;;;16.80;99.90;;;;;;5108535;27;20082;-63
2023/10/07 05:13:21;;;;;;;12.32;3.58;;;16.70;99.90;;;;;;5131624;27;20042;-63
2023/10/07 05:15:47;;;;;;;11.88;3.85;;;16.70;99.90;;;;;;5125182;27;20051;-63
2023/10/07 05:18:16;;;;;;;13.00;3.97;;;16.70;99.90;;;;;;5123697;27;20046;-63
2023/10/07 05:20:43;;;;;;;16.25;3.65;;;16.70;99.90;;;;;;5104483;27;20043;-63
2023/10/07 05:23:13;;;;;;;14.45;3.35;;;16.70;99.90;;;;;;5108453;27;20050;-63
2023/10/07 05:25:48;;;;;;;13.55;3.60;;;16.70;99.90;;;;;;5105868;27;20500;-63
2023/10/07 05:28:17;;;;;;;11.65;3.40;;;16.70;99.90;;;;;;5107030;27;20066;-63
2023/10/07 05:30:54;;;;;;;11.10;3.47;;;16.70;99.90;;;;;;5106387;27;20530;-62
2023/10/07 05:33:27;;;;;;;13.90;3.55;;;16.70;99.90;;;;;;5125658;27;20043;-62
2023/10/07 05:36:13;;;;;;;13.07;3.97;;;16.70;99.90;;;;;;5090370;27;20081;-63
2023/10/07 05:38:47;;;;;;;13.52;3.50;;;16.60;99.90;;;;;;5105036;27;20050;-62
2023/10/07 05:41:14;;;;;;;13.63;4.20;;;16.70;99.90;;;;;;5101260;27;20039;-62
2023/10/07 05:43:49;;;;;;;14.63;3.85;;;16.60;99.90;;;;;;5108908;27;20451;-62
2023/10/07 05:46:19;;;;;;;11.15;3.83;;;16.60;99.90;;;;;;5106502;27;20481;-62
2023/10/07 05:48:45;;;;;;;15.98;4.25;;;16.60;99.90;;;;;;5125395;27;20043;-62
2023/10/07 05:51:11;;;;;;;13.45;4.25;;;16.60;99.90;;;;;;5106330;27;20497;-63
2023/10/07 05:53:39;;;;;;;11.93;3.63;;;16.60;99.90;;;;;;5104775;27;20123;-62
2023/10/07 05:56:06;;;;;;;11.60;3.75;;;16.60;99.90;;;;;;5107694;27;20513;-62
2023/10/07 05:58:36;;;;;;;13.48;3.40;;;16.60;99.90;;;;;;5093307;27;20473;-62
2023/10/07 06:01:03;;;;;;;14.68;4.10;;;16.60;99.90;;;;;;5123215;27;20043;-62
2023/10/07 06:03:30;;;;;;;12.25;3.78;;;16.60;99.90;;;;;;5104906;27;20046;-62
2023/10/07 06:05:59;;;;;;;10.20;3.72;;;16.60;99.90;;;;;;5109036;27;20039;-62
2023/10/07 06:08:26;;;;;;;15.27;3.80;;;16.60;99.90;;;;;;5106986;27;20160;-62
2023/10/07 06:10:54;;;;;;;10.20;3.75;;;16.60;99.90;;;;;;5105241;27;20542;-62
2023/10/07 06:13:20;;;;;;;16.58;4.82;;;16.60;99.90;;;;;;5108726;27;20035;-62
2023/10/07 06:15:45;;;;;;;12.50;3.88;;;16.60;99.90;;;;;;5125335;27;20058;-62
2023/10/07 06:18:11;;;;;;;12.32;3.72;;;16.60;99.90;;;;;;5108983;27;20043;-62
2023/10/07 06:20:37;;;;;;;14.88;4.15;;;16.60;99.90;;;;;;5085046;27;20084;-63
2023/10/07 06:23:14;;;;;;;11.27;3.92;;;16.60;99.90;;;;;;5117602;27;20032;-62
2023/10/07 06:25:50;;;;;;;14.10;3.92;;;16.60;99.90;;;;;;5099553;28;20039;-62
2023/10/07 06:28:25;;;;;;;11.18;4.55;;;16.60;99.90;;;;;;5125759;28;20039;-63
2023/10/07 06:30:56;;;;;;;13.95;3.97;;;16.60;99.90;;;;;;5106223;28;20039;-62
2023/10/07 06:33:23;;;;;;;14.30;4.83;;;16.60;99.90;;;;;;5104435;28;20054;-62
2023/10/07 06:35:51;;;;;;;15.50;4.20;;;16.60;99.90;;;;;;5105520;28;20058;-63
2023/10/07 06:38:20;;;;;;;11.93;3.53;;;16.60;99.90;;;;;;5106848;28;20043;-62
2023/10/07 06:40:48;;;;;;;11.55;4.13;;;16.60;99.90;;;;;;5105705;28;20039;-63
2023/10/07 06:43:15;;;;;;;15.93;3.97;;;16.60;99.90;;;;;;5106626;28;20031;-63
2023/10/07 06:45:44;;;;;;;12.73;4.18;;;16.60;99.90;;;;;;5088388;28;20066;-62
2023/10/07 06:48:11;;;;;;;13.30;3.58;;;16.60;99.90;;;;;;5108140;28;20456;-62
2023/10/07 06:50:41;;;;;;;12.63;4.07;;;16.60;99.90;;;;;;5102452;28;20039;-62
2023/10/07 06:53:11;;;;;;;9.63;3.78;;;16.50;99.90;;;;;;5124962;28;20049;-63
2023/10/07 06:55:44;;;;;;;15.73;4.57;;;16.50;99.90;;;;;;5100935;28;20050;-63
2023/10/07 06:58:11;;;;;;;12.27;4.40;;;16.60;99.90;;;;;;5125664;28;20513;-63
2023/10/07 07:00:47;;;;;;;10.95;3.75;;;16.60;99.90;;;;;;5106303;28;20035;-63
2023/10/07 07:03:14;;;;;;;13.80;4.25;;;16.60;99.90;;;;;;5105260;27;20173;-62
2023/10/07 07:05:40;;;;;;;16.00;4.82;;;16.60;99.90;;;;;;5108793;27;20027;-62
2023/10/07 07:08:10;;;;;;;11.90;4.00;;;16.60;99.90;;;;;;5125702;27;20035;-63
2023/10/07 07:10:36;;;;;;;16.52;4.10;;;16.60;99.90;;;;;;5109164;27;20750;-63
2023/10/07 07:13:12;;;;;;;13.68;4.07;;;16.60;99.90;;;;;;5126003;27;20066;-63
2023/10/07 07:15:41;;;;;;;17.42;4.43;;;16.70;99.90;;;;;;5106200;28;20056;-63
2023/10/07 07:18:14;;;;;;;15.13;4.57;;;16.70;99.90;;;;;;5107363;28;20039;-63
2023/10/07 07:20:53;;;;;;;11.40;3.85;;;16.80;99.90;;;;;;5107364;28;20050;-62
2023/10/07 07:23:21;;;;;;;14.88;4.20;;;16.90;99.90;;;;;;5107773;28;20031;-62
2023/10/07 07:28:34;;;;;;;14.52;4.07;;;17.00;99.90;;;;;;5118650;27;20119;-62
2023/10/07 07:30:59;;;;;;;12.35;3.80;;;17.10;99.90;;;;;;5107629;28;20602;-63
2023/10/07 07:33:34;;;;;;;14.55;4.05;;;17.10;99.90;;;;;;5108856;28;20027;-63
2023/10/07 07:36:06;;;;;;;16.73;5.22;;;17.20;99.90;;;;;;5103976;28;20043;-63
2023/10/07 07:38:43;;;;;;;9.95;4.03;;;17.30;99.90;;;;;;5105591;28;20094;-63
2023/10/07 07:41:09;;;;;;;14.68;4.55;;;17.30;99.90;;;;;;5100409;28;20047;-62
2023/10/07 07:43:40;;;;;;;14.90;3.95;;;17.30;99.90;;;;;;5090726;28;20036;-62
2023/10/07 07:46:18;;;;;;;10.63;4.30;;;17.30;99.90;;;;;;5104750;28;20047;-63
2023/10/07 07:48:48;;;;;;;13.52;3.75;;;17.30;99.90;;;;;;5105972;28;20830;-63
2023/10/07 07:51:17;;;;;;;14.48;3.47;;;17.30;99.90;;;;;;5107921;28;20097;-63
2023/10/07 07:53:44;;;;;;;11.43;3.75;;;17.30;99.90;;;;;;5106156;27;20490;-63
2023/10/07 07:56:12;;;;;;;15.15;5.00;;;17.30;99.90;;;;;;5111220;28;20035;-63
2023/10/07 07:58:39;;;;;;;11.60;3.50;;;17.30;99.90;;;;;;5112624;28;20047;-63
2023/10/07 08:01:05;;;;;;;15.23;3.90;;;17.40;99.90;;;;;;5110267;28;20555;-62
2023/10/07 08:03:35;;;;;;;12.52;3.85;;;17.40;99.90;;;;;;5109871;28;20117;-62
2023/10/07 08:06:04;;;;;;;15.27;4.50;;;17.50;99.90;;;;;;5107850;28;20042;-63
2023/10/07 08:08:36;;;;;;;14.10;4.03;;;17.50;99.90;;;;;;5103964;28;20047;-62
2023/10/07 08:11:03;;;;;;;13.45;3.67;;;17.60;99.90;;;;;;5111970;28;20078;-63
2023/10/07 08:13:28;;;;;;;15.73;4.40;;;17.70;99.90;;;;;;5111770;28;20044;-62
2023/10/07 08:15:55;;;;;;;13.50;3.95;;;17.60;99.90;;;;;;5109191;28;20098;-62
2023/10/07 08:18:30;;;;;;;15.48;3.72;;;17.60;99.90;;;;;;5110845;27;20486;-63
2023/10/07 08:20:56;;;;;;;12.93;3.83;;;17.60;99.90;;;;;;5111610;28;20047;-62
2023/10/07 08:23:28;;;;;;;14.57;4.07;;;17.60;99.90;;;;;;5108602;28;20047;-62
2023/10/07 08:26:10;;;;;;;12.30;4.30;;;17.60;99.90;;;;;;5109700;28;20074;-62
2023/10/07 08:28:42;;;;;;;10.32;3.33;;;17.70;99.90;;;;;;5104042;27;20095;-63
2023/10/07 08:31:19;;;;;;;14.73;4.53;;;17.80;99.90;;;;;;5089437;28;20071;-63
2023/10/07 08:33:53;;;;;;;13.13;4.55;;;18.00;99.90;;;;;;5111826;27;20039;-62
2023/10/07 08:36:29;;;;;;;9.77;3.75;;;18.00;99.90;;;;;;5106607;28;20039;-63
2023/10/07 08:38:59;;;;;;;15.63;3.92;;;18.10;99.90;;;;;;5110339;28;20554;-62
2023/10/07 08:41:28;;;;;;;12.90;3.78;;;18.10;99.90;;;;;;5109568;28;20024;-63
2023/10/07 08:44:14;;;;;;;14.27;4.30;;;18.00;99.90;;;;;;5110140;27;20122;-62
2023/10/07 08:46:53;;;;;;;16.05;3.78;;;18.10;99.90;;;;;;5106122;28;20413;-63
2023/10/07 08:49:26;;;;;;;13.15;3.85;;;18.00;99.90;;;;;;5110952;27;20134;-63
2023/10/07 08:51:56;;;;;;;9.85;3.60;;;18.00;99.90;;;;;;5104034;27;20495;-62
2023/10/07 08:54:26;;;;;;;11.05;3.83;;;17.90;99.90;;;;;;5108514;27;20091;-63
2023/10/07 08:56:57;;;;;;;10.07;3.45;;;17.90;99.90;;;;;;5107557;28;20383;-62
2023/10/07 08:59:32;;;;;;;11.30;3.47;;;17.90;99.90;;;;;;5112287;28;20063;-63
2023/10/07 09:02:12;;;;;;;14.00;3.75;;;18.00;99.90;;;;;;5101914;27;20096;-62
2023/10/07 09:04:40;;;;;;;11.32;3.55;;;18.10;99.90;;;;;;5109366;28;20078;-62
2023/10/07 09:07:08;;;;;;;9.60;3.38;;;18.20;99.90;;;;;;5106131;28;20168;-63
2023/10/07 09:09:44;;;;;;;10.80;3.22;;;18.30;99.90;;;;;;5088775;28;20058;-62
2023/10/07 09:12:18;;;;;;;8.93;3.03;;;18.30;99.90;;;;;;5102665;27;20039;-63
2023/10/07 09:14:57;;;;;;;12.88;3.40;;;18.30;99.90;;;;;;5114112;27;20518;-63
2023/10/07 09:17:26;;;;;;;10.45;3.15;;;18.30;99.90;;;;;;5109955;27;20035;-63
2023/10/07 09:19:58;;;;;;;13.45;3.30;;;18.50;99.90;;;;;;5131499;27;20043;-62
2023/10/07 09:22:25;;;;;;;13.40;3.20;;;18.70;99.90;;;;;;5109680;27;20067;-62
2023/10/07 09:24:55;;;;;;;13.00;3.47;;;18.80;99.90;;;;;;5129921;27;20027;-62
2023/10/07 09:27:37;;;;;;;13.13;3.58;;;18.90;99.90;;;;;;5106783;27;20152;-62
2023/10/07 09:32:55;;;;;;;12.43;3.40;;;19.30;99.90;;;;;;5111932;27;20042;-63
2023/10/07 09:35:25;;;;;;;8.98;3.15;;;19.30;99.90;;;;;;5112131;27;20114;-63
2023/10/07 09:37:59;;;;;;;11.32;3.20;;;19.30;99.90;;;;;;5105849;27;20071;-63
2023/10/07 09:43:26;;;;;;;10.18;3.35;;;19.40;99.90;;;;;;5112319;27;20125;-63
2023/10/07 09:45:52;;;;;;;11.38;3.28;;;19.40;99.90;;;;;;5131223;27;20046;-62
2023/10/07 09:48:30;;;;;;;12.85;3.22;;;19.30;99.90;;;;;;5131643;27;20450;-62
2023/10/07 09:50:58;;;;;;;13.63;3.85;;;19.10;99.90;;;;;;5110286;27;20393;-62
2023/10/07 09:53:37;;;;;;;11.35;3.47;;;19.00;99.90;;;;;;5130980;27;20423;-62
2023/10/07 09:56:20;;;;;;;8.88;3.20;;;18.90;99.90;;;;;;5111936;27;20035;-63
2023/10/07 09:59:15;;;;;;;13.07;3.40;;;18.80;99.90;;;;;;5115035;27;20397;-62
2023/10/07 10:02:16;;;;;;;13.85;3.30;;;18.70;99.90;;;;;;5108189;27;20043;-62
2023/10/07 10:05:14;;;;;;;11.10;3.60;;;18.60;99.90;;;;;;5130940;27;20143;-62
2023/10/07 10:08:19;;;;;;;11.35;3.30;;;18.60;99.90;;;;;;5131601;27;20061;-62
2023/10/07 10:10:49;;;;;;;13.50;4.13;;;18.50;99.90;;;;;;5094984;28;20462;-62
2023/10/07 10:16:14;;;;;;;13.43;3.65;;;18.50;99.90;;;;;;5112856;27;20497;-62
2023/10/07 10:19:11;;;;;;;13.20;3.60;;;18.40;99.90;;;;;;5112001;27;20537;-62
2023/10/07 10:21:37;;;;;;;10.25;3.40;;;18.40;99.90;;;;;;5095210;27;20046;-63
2023/10/07 10:24:03;;;;;;;11.40;3.60;;;18.40;99.90;;;;;;5131485;27;20367;-62
2023/10/07 10:26:33;;;;;;;10.85;3.22;;;18.40;99.90;;;;;;5111684;28;20046;-62
2023/10/07 10:29:07;;;;;;;11.88;4.00;;;18.50;99.90;;;;;;5112013;28;20394;-62
2023/10/07 10:31:40;;;;;;;11.48;3.80;;;18.50;99.90;;;;;;5111811;28;20106;-62
2023/10/07 10:34:08;;;;;;;11.68;3.67;;;18.50;99.90;;;;;;5113191;28;20493;-62
2023/10/07 10:36:46;;;;;;;16.30;3.95;;;18.60;99.90;;;;;;5130070;28;20039;-62
2023/10/07 10:39:18;;;;;;;10.70;3.72;;;18.70;99.90;;;;;;5114758;27;20095;-62
2023/10/07 10:41:44;;;;;;;10.90;3.90;;;18.80;99.90;;;;;;5133026;27;20398;-62
2023/10/07 10:44:11;;;;;;;14.85;3.72;;;18.80;99.90;;;;;;5109327;27;20344;-62
2023/10/07 10:46:44;;;;;;;12.98;4.07;;;18.70;99.90;;;;;;5115736;27;20043;-62
2023/10/07 10:49:11;;;;;;;9.88;3.63;;;18.70;99.90;;;;;;5116824;27;20046;-62
2023/10/07 10:51:45;;;;;;;9.75;3.22;;;18.70;99.90;;;;;;5134210;27;20095;-62
2023/10/07 10:54:15;;;;;;;11.55;3.38;;;18.60;99.90;;;;;;5114713;27;20039;-62
2023/10/07 10:56:47;;;;;;;11.02;4.22;;;18.60;99.90;;;;;;5115866;27;20543;-62
2023/10/07 10:59:14;;;;;;;13.57;4.40;;;18.60;99.90;;;;;;5135357;27;20525;-62
2023/10/07 11:01:44;;;;;;;12.75;3.85;;;18.50;99.90;;;;;;5115317;27;20043;-62
2023/10/07 11:04:13;;;;;;;14.52;3.50;;;18.50;99.90;;;;;;5115180;27;20064;-62
2023/10/07 11:06:42;;;;;;;12.65;3.50;;;18.50;99.90;;;;;;5093378;27;20506;-62
2023/10/07 11:09:09;;;;;;;13.57;4.35;;;18.50;99.90;;;;;;5116263;27;20502;-62
2023/10/07 11:11:35;;;;;;;12.77;4.32;;;18.50;99.90;;;;;;5133693;27;20394;-62
2023/10/07 11:14:09;;;;;;;9.82;3.97;;;18.50;99.90;;;;;;5109927;27;20126;-62
2023/10/07 11:16:48;;;;;;;9.98;3.75;;;18.60;99.90;;;;;;5114958;27;20055;-62
2023/10/07 11:19:18;;;;;;;13.32;4.32;;;18.60;99.90;;;;;;5134892;27;20096;-62
2023/10/07 11:21:48;;;;;;;10.77;3.53;;;18.60;99.90;;;;;;5115178;27;20035;-62
2023/10/07 11:24:30;;;;;;;9.00;4.03;;;18.60;99.90;;;;;;5112394;27;20044;-62
2023/10/07 11:26:59;;;;;;;12.80;3.97;;;18.70;99.90;;;;;;5133089;27;20508;-62
2023/10/07 11:29:32;;;;;;;11.68;4.82;;;18.90;99.90;;;;;;5114897;27;20051;-62
2023/10/07 11:32:07;;;;;;;12.27;3.88;;;19.20;99.90;;;;;;5116337;27;20126;-62
2023/10/07 11:34:38;;;;;;;10.32;3.78;;;19.30;99.90;;;;;;5095035;27;20096;-63
2023/10/07 11:37:14;;;;;;;13.02;3.63;;;19.20;99.90;;;;;;5116336;27;20092;-63
2023/10/07 11:39:44;;;;;;;13.20;4.85;;;19.10;99.90;;;;;;5113376;27;20058;-63
2023/10/07 11:42:14;;;;;;;11.57;3.90;;;19.00;99.90;;;;;;5134128;27;20089;-63
2023/10/07 11:44:41;;;;;;;11.55;4.07;;;18.90;99.90;;;;;;5131548;27;20066;-62
2023/10/07 11:47:10;;;;;;;15.60;4.63;;;19.00;99.90;;;;;;5114733;27;20138;-63
2023/10/07 11:49:36;;;;;;;10.07;4.00;;;18.90;99.90;;;;;;5133311;27;20073;-63
2023/10/07 11:52:05;;;;;;;13.45;3.83;;;18.90;99.90;;;;;;5108869;27;20035;-62
2023/10/07 11:54:35;;;;;;;12.75;3.72;;;19.10;99.90;;;;;;5094924;27;20047;-63
2023/10/07 11:57:04;;;;;;;11.60;3.92;;;19.20;99.90;;;;;;5111078;27;20086;-63
2023/10/07 11:59:33;;;;;;;11.27;4.30;;;19.30;99.90;;;;;;5130392;27;20047;-62
2023/10/07 12:02:00;;;;;;;12.07;3.90;;;19.40;99.90;;;;;;5132790;27;20031;-63
2023/10/07 12:04:26;;;;;;;12.45;3.63;;;19.40;99.90;;;;;;5107517;27;20121;-63
2023/10/07 12:06:53;;;;;;;11.73;3.72;;;19.40;99.90;;;;;;5109903;27;20054;-62
2023/10/07 12:09:23;;;;;;;11.45;4.00;;;19.40;99.90;;;;;;5109934;27;20236;-62
2023/10/07 12:11:53;;;;;;;11.07;3.97;;;19.40;99.90;;;;;;5109084;27;20486;-63
2023/10/07 12:14:20;;;;;;;16.10;3.92;;;19.30;99.90;;;;;;5122723;27;20474;-63
2023/10/07 12:16:46;;;;;;;13.27;3.92;;;19.30;99.90;;;;;;5120688;27;20059;-63
2023/10/07 12:19:16;;;;;;;10.02;3.50;;;19.50;99.90;;;;;;5100561;27;20086;-64
2023/10/07 12:21:43;;;;;;;13.20;3.80;;;19.60;99.90;;;;;;5087474;27;20031;-63
2023/10/07 12:24:09;;;;;;;10.55;3.70;;;19.60;99.90;;;;;;5117775;27;20096;-63
2023/10/07 12:26:35;;;;;;;12.43;3.60;;;19.70;99.90;;;;;;5103428;27;20546;-63
2023/10/07 12:29:01;;;;;;;15.43;3.92;;;19.70;99.90;;;;;;5090153;27;20051;-63
2023/10/07 12:31:27;;;;;;;13.43;4.05;;;19.70;99.90;;;;;;5133291;27;20084;-64
2023/10/07 12:33:55;;;;;;;13.07;4.10;;;19.70;99.90;;;;;;5132182;27;20454;-63
2023/10/07 12:36:22;;;;;;;13.45;4.00;;;19.70;99.90;;;;;;5105165;27;20165;-63
2023/10/07 12:38:47;;;;;;;15.05;3.95;;;19.60;99.90;;;;;;5091685;27;20043;-64
2023/10/07 12:41:13;;;;;;;12.40;3.95;;;19.70;99.90;;;;;;5088466;27;20078;-64
2023/10/07 12:43:39;;;;;;;10.88;4.03;;;19.80;99.90;;;;;;5105941;27;20793;-62
2023/10/07 12:46:14;;;;;;;9.18;3.70;;;19.80;99.90;;;;;;5093299;27;20145;-62
2023/10/07 12:48:40;;;;;;;9.90;3.35;;;19.80;99.90;;;;;;5109063;27;20150;-63
2023/10/07 12:51:06;;;;;;;16.23;4.68;;;19.80;99.90;;;;;;5089679;27;20134;-63
2023/10/07 12:53:36;;;;;;;11.02;4.03;;;19.70;99.90;;;;;;5088812;27;20039;-63
2023/10/07 12:56:19;;;;;;;11.70;4.30;;;19.60;99.90;;;;;;5093671;27;20617;-63
2023/10/07 12:58:46;;;;;;;12.00;3.83;;;19.60;99.90;;;;;;5107513;27;20047;-63
2023/10/07 13:01:12;;;;;;;11.32;3.95;;;19.50;99.90;;;;;;5075243;27;20141;-63
2023/10/07 13:03:45;;;;;;;10.30;4.05;;;19.40;99.90;;;;;;5097510;27;20498;-63
2023/10/07 13:06:16;;;;;;;11.27;4.38;;;19.30;99.90;;;;;;5111040;27;20043;-63
2023/10/07 13:08:42;;;;;;;9.97;4.20;;;19.30;99.90;;;;;;5095452;27;20043;-63
2023/10/07 13:11:12;;;;;;;11.65;4.07;;;19.30;99.90;;;;;;5095634;27;20633;-63
2023/10/07 13:13:42;;;;;;;15.38;4.35;;;19.20;99.90;;;;;;5114815;27;20113;-63
2023/10/07 13:16:10;;;;;;;12.45;3.63;;;19.20;99.90;;;;;;5112591;27;20116;-63
2023/10/07 13:18:40;;;;;;;12.95;4.10;;;19.20;99.90;;;;;;5104707;27;20054;-63
2023/10/07 13:21:16;;;;;;;11.75;3.90;;;19.10;99.90;;;;;;5078128;27;20142;-63
2023/10/07 13:23:45;;;;;;;13.63;4.45;;;19.00;99.90;;;;;;5094349;27;20514;-63
2023/10/07 13:26:11;;;;;;;11.35;4.15;;;18.90;99.90;;;;;;5104587;27;20035;-63
2023/10/07 13:28:38;;;;;;;11.00;4.18;;;18.90;99.90;;;;;;5106510;27;20035;-63
2023/10/07 13:31:14;;;;;;;16.17;4.95;;;19.00;99.90;;;;;;5088435;27;20027;-63